createdAt,value
2018-06-08T00:00:09.548Z,27.20
2018-06-08T00:01:09.542Z,26.80
2018-06-08T00:02:09.532Z,27.30
2018-06-08T00:03:09.519Z,27.80
2018-06-08T00:04:09.508Z,31.60
2018-06-08T00:05:09.524Z,30.10
2018-06-08T00:06:09.486Z,29.40
2018-06-08T00:07:09.477Z,30.70
2018-06-08T00:08:09.469Z,34.70
2018-06-08T00:09:09.455Z,37.10
2018-06-08T00:10:09.444Z,34.60
2018-06-08T00:11:09.435Z,42.10
2018-06-08T00:12:09.423Z,37.00
2018-06-08T00:13:09.412Z,39.40
2018-06-08T00:14:09.401Z,37.90
2018-06-08T00:15:09.390Z,34.40
2018-06-08T00:16:09.383Z,34.70
2018-06-08T00:17:09.370Z,30.70
2018-06-08T00:18:09.360Z,32.10
2018-06-08T00:19:09.348Z,27.50
2018-06-08T00:20:09.339Z,28.80
2018-06-08T00:21:09.336Z,25.80
2018-06-08T00:22:09.315Z,29.00
2018-06-08T00:23:09.310Z,27.20
2018-06-08T00:24:09.297Z,27.70
2018-06-08T00:25:09.284Z,26.20
2018-06-08T00:26:09.272Z,23.60
2018-06-08T00:27:09.263Z,26.60
2018-06-08T00:28:09.270Z,26.50
2018-06-08T00:29:09.241Z,23.60
2018-06-08T00:30:09.232Z,24.60
2018-06-08T00:31:09.221Z,25.40
2018-06-08T00:32:09.207Z,23.70
2018-06-08T00:33:09.198Z,26.70
2018-06-08T00:34:09.189Z,25.00
2018-06-08T00:35:09.177Z,25.50
2018-06-08T00:36:09.165Z,23.20
2018-06-08T00:37:09.155Z,25.40
2018-06-08T00:38:09.145Z,26.90
2018-06-08T00:39:09.135Z,26.30
2018-06-08T00:40:09.121Z,25.50
2018-06-08T00:41:09.167Z,26.20
2018-06-08T00:42:09.102Z,23.40
2018-06-08T00:43:09.091Z,27.70
2018-06-08T00:44:09.078Z,24.20
2018-06-08T00:45:09.069Z,25.00
2018-06-08T00:46:09.056Z,22.70
2018-06-08T00:47:09.045Z,26.90
2018-06-08T00:48:09.032Z,25.40
2018-06-08T00:49:09.024Z,24.20
2018-06-08T00:50:09.016Z,24.00
2018-06-08T00:51:09.001Z,25.70
2018-06-08T00:52:08.992Z,24.90
2018-06-08T00:53:08.984Z,24.20
2018-06-08T00:54:08.969Z,27.30
2018-06-08T00:55:08.959Z,26.30
2018-06-08T00:56:08.948Z,26.30
2018-06-08T00:57:08.939Z,24.40
2018-06-08T00:58:08.924Z,27.40
2018-06-08T00:59:08.915Z,28.80
2018-06-08T01:00:08.905Z,29.10
2018-06-08T01:01:08.896Z,27.40
2018-06-08T01:02:08.882Z,28.20
2018-06-08T01:03:08.870Z,30.20
2018-06-08T01:04:08.860Z,30.20
2018-06-08T01:05:08.848Z,30.10
2018-06-08T01:06:08.837Z,31.90
2018-06-08T01:07:08.827Z,35.40
2018-06-08T01:08:08.812Z,30.60
2018-06-08T01:09:08.805Z,31.30
2018-06-08T01:10:08.793Z,29.40
2018-06-08T01:11:08.782Z,31.70
2018-06-08T01:12:08.771Z,37.90
2018-06-08T01:13:08.761Z,32.10
2018-06-08T01:14:08.748Z,42.60
2018-06-08T01:15:08.747Z,37.60
2018-06-08T01:16:08.725Z,35.80
2018-06-08T01:17:08.714Z,36.20
2018-06-08T01:18:08.704Z,38.40
2018-06-08T01:19:08.701Z,38.40
2018-06-08T01:20:08.681Z,36.20
2018-06-08T01:21:08.673Z,39.10
2018-06-08T01:22:08.659Z,34.70
2018-06-08T01:23:08.652Z,40.70
2018-06-08T01:24:08.637Z,40.00
2018-06-08T01:25:08.627Z,38.10
2018-06-08T01:26:08.614Z,39.70
2018-06-08T01:27:08.606Z,38.80
2018-06-08T01:28:08.592Z,41.30
2018-06-08T01:29:08.582Z,40.30
2018-06-08T01:30:08.570Z,41.60
2018-06-08T01:31:08.558Z,42.60
2018-06-08T01:32:08.548Z,38.70
2018-06-08T01:33:08.538Z,42.10
2018-06-08T01:34:08.524Z,41.80
2018-06-08T01:35:08.515Z,40.30
2018-06-08T01:36:08.505Z,40.70
2018-06-08T01:37:08.488Z,42.00
2018-06-08T01:38:08.485Z,42.20
2018-06-08T01:39:08.470Z,46.70
2018-06-08T01:40:08.458Z,44.30
2018-06-08T01:41:08.456Z,44.80
2018-06-08T01:42:08.436Z,44.90
2018-06-08T01:43:08.425Z,46.50
2018-06-08T01:44:08.416Z,45.60
2018-06-08T01:45:08.402Z,45.70
2018-06-08T01:46:08.391Z,48.10
2018-06-08T01:47:08.379Z,48.30
2018-06-08T01:48:08.372Z,47.10
2018-06-08T01:49:08.357Z,51.10
2018-06-08T01:50:08.346Z,47.80
2018-06-08T01:51:08.338Z,52.00
2018-06-08T01:52:08.328Z,53.40
2018-06-08T01:53:08.314Z,54.00
2018-06-08T01:54:08.301Z,57.20
2018-06-08T01:55:08.295Z,54.50
2018-06-08T01:56:08.279Z,53.60
2018-06-08T01:57:08.268Z,51.60
2018-06-08T01:58:08.256Z,50.70
2018-06-08T01:59:08.248Z,54.20
2018-06-08T02:00:08.234Z,52.80
2018-06-08T02:01:08.223Z,56.90
2018-06-08T02:02:08.211Z,55.60
2018-06-08T02:03:08.199Z,53.10
2018-06-08T02:04:08.188Z,59.30
2018-06-08T02:05:08.178Z,53.70
2018-06-08T02:06:08.166Z,56.10
2018-06-08T02:07:08.156Z,55.20
2018-06-08T02:08:08.146Z,52.40
2018-06-08T02:09:08.132Z,58.30
2018-06-08T02:10:08.120Z,51.30
2018-06-08T02:11:08.112Z,53.70
2018-06-08T02:12:08.103Z,51.10
2018-06-08T02:13:08.088Z,53.20
2018-06-08T02:14:08.075Z,53.20
2018-06-08T02:15:08.075Z,54.60
2018-06-08T02:16:08.053Z,52.10
2018-06-08T02:17:08.133Z,50.80
2018-06-08T02:18:08.056Z,50.70
2018-06-08T02:19:08.044Z,53.90
2018-06-08T02:20:08.032Z,53.30
2018-06-08T02:21:08.021Z,53.30
2018-06-08T02:22:08.009Z,53.50
2018-06-08T02:24:39.794Z,55.50
2018-06-08T02:25:39.765Z,50.40
2018-06-08T02:27:33.220Z,56.10
2018-06-08T02:28:32.792Z,59.00
2018-06-08T02:30:25.907Z,57.00
2018-06-08T02:31:25.846Z,59.70
2018-06-08T02:33:18.915Z,54.50
2018-06-08T02:34:18.882Z,54.40
2018-06-08T02:36:11.982Z,56.30
2018-06-08T02:37:11.913Z,59.90
2018-06-08T02:39:04.982Z,55.50
2018-06-08T02:40:04.943Z,52.20
2018-06-08T02:41:58.038Z,50.80
2018-06-08T02:42:57.973Z,52.70
2018-06-08T02:44:52.578Z,59.70
2018-06-08T02:45:52.500Z,59.70
2018-06-08T02:47:45.583Z,52.00
2018-06-08T02:48:45.540Z,57.40
2018-06-08T02:50:38.640Z,54.70
2018-06-08T02:51:38.581Z,55.50
2018-06-08T02:53:31.674Z,54.80
2018-06-08T02:54:31.621Z,60.20
2018-06-08T02:56:24.711Z,56.80
2018-06-08T02:57:24.678Z,59.50
2018-06-08T02:59:18.158Z,54.90
2018-06-08T03:00:17.712Z,58.10
2018-06-08T03:02:10.808Z,56.60
2018-06-08T03:03:10.749Z,55.80
2018-06-08T03:05:03.855Z,55.40
2018-06-08T03:06:03.814Z,56.20
2018-06-08T03:07:03.807Z,56.00
2018-06-08T03:08:03.794Z,56.60
2018-06-08T03:09:03.807Z,55.70
2018-06-08T03:10:03.768Z,60.90
2018-06-08T03:11:03.761Z,62.40
2018-06-08T03:12:03.791Z,57.40
2018-06-08T03:13:03.734Z,61.40
2018-06-08T03:14:03.731Z,65.80
2018-06-08T03:15:03.710Z,57.00
2018-06-08T03:16:03.699Z,58.90
2018-06-08T03:17:03.687Z,57.30
2018-06-08T03:18:03.681Z,56.50
2018-06-08T03:19:03.668Z,55.70
2018-06-08T03:20:03.655Z,59.00
2018-06-08T03:21:03.643Z,60.00
2018-06-08T03:22:03.634Z,62.10
2018-06-08T03:23:03.624Z,57.40
2018-06-08T03:24:03.607Z,61.20
2018-06-08T03:25:03.596Z,55.90
2018-06-08T03:26:03.589Z,60.60
2018-06-08T03:27:03.574Z,58.00
2018-06-08T03:28:03.570Z,57.00
2018-06-08T03:29:03.556Z,57.80
2018-06-08T03:30:03.545Z,60.30
2018-06-08T03:31:03.527Z,56.40
2018-06-08T03:32:03.516Z,60.80
2018-06-08T03:33:03.508Z,63.20
2018-06-08T03:34:03.496Z,60.20
2018-06-08T03:35:03.487Z,58.60
2018-06-08T03:36:03.544Z,58.30
2018-06-08T03:37:03.462Z,57.00
2018-06-08T03:38:03.460Z,61.10
2018-06-08T03:39:03.442Z,61.20
2018-06-08T03:40:03.426Z,57.30
2018-06-08T03:41:03.420Z,56.70
2018-06-08T03:42:03.401Z,58.70
2018-06-08T03:43:03.391Z,65.60
2018-06-08T03:44:03.381Z,59.00
2018-06-08T03:45:03.378Z,59.30
2018-06-08T03:46:03.360Z,57.60
2018-06-08T03:47:03.349Z,61.70
2018-06-08T03:48:03.337Z,58.50
2018-06-08T03:49:03.359Z,60.00
2018-06-08T03:50:03.321Z,57.90
2018-06-08T03:51:03.306Z,57.10
2018-06-08T03:52:03.290Z,58.90
2018-06-08T03:53:03.282Z,60.50
2018-06-08T03:54:03.267Z,63.70
2018-06-08T03:55:03.266Z,58.90
2018-06-08T03:56:03.299Z,58.20
2018-06-08T03:57:03.238Z,62.60
2018-06-08T03:58:03.224Z,64.70
2018-06-08T03:59:03.210Z,62.30
2018-06-08T04:00:03.198Z,59.50
2018-06-08T04:01:03.196Z,62.40
2018-06-08T04:02:03.177Z,68.80
2018-06-08T04:03:03.169Z,59.80
2018-06-08T04:04:03.153Z,60.00
2018-06-08T04:05:03.144Z,59.80
2018-06-08T04:06:03.137Z,58.20
2018-06-08T04:07:03.123Z,59.40
2018-06-08T04:08:03.118Z,58.30
2018-06-08T04:09:03.101Z,56.20
2018-06-08T04:10:03.087Z,57.80
2018-06-08T04:11:03.084Z,60.30
2018-06-08T04:12:03.066Z,59.80
2018-06-08T04:13:03.154Z,57.40
2018-06-08T04:14:03.041Z,56.70
2018-06-08T04:15:03.034Z,64.20
2018-06-08T04:16:03.023Z,62.20
2018-06-08T04:17:03.013Z,61.60
2018-06-08T04:18:03.015Z,60.40
2018-06-08T04:19:02.992Z,63.90
2018-06-08T04:20:02.978Z,67.50
2018-06-08T04:21:02.974Z,57.40
2018-06-08T04:22:02.955Z,61.90
2018-06-08T04:23:02.949Z,64.70
2018-06-08T04:24:02.932Z,59.30
2018-06-08T04:25:02.922Z,62.30
2018-06-08T04:26:02.911Z,61.80
2018-06-08T04:27:02.909Z,63.10
2018-06-08T04:28:02.892Z,64.90
2018-06-08T04:29:02.873Z,64.30
2018-06-08T04:30:02.869Z,62.40
2018-06-08T04:31:02.860Z,67.00
2018-06-08T04:32:02.840Z,62.50
2018-06-08T04:33:02.982Z,64.00
2018-06-08T04:34:02.823Z,61.10
2018-06-08T04:35:02.808Z,68.80
2018-06-08T04:36:02.797Z,60.30
2018-06-08T04:37:02.787Z,63.50
2018-06-08T04:38:02.784Z,59.40
2018-06-08T04:39:02.766Z,60.80
2018-06-08T04:40:02.809Z,63.00
2018-06-08T04:41:02.744Z,57.40
2018-06-08T04:42:02.730Z,59.30
2018-06-08T04:43:02.722Z,57.50
2018-06-08T04:44:02.705Z,63.60
2018-06-08T04:45:02.709Z,60.70
2018-06-08T04:46:02.691Z,62.40
2018-06-08T04:47:02.677Z,62.70
2018-06-08T04:48:02.667Z,58.60
2018-06-08T04:49:02.656Z,60.70
2018-06-08T04:50:02.645Z,65.90
2018-06-08T04:51:02.643Z,62.40
2018-06-08T04:52:02.629Z,59.60
2018-06-08T04:53:02.610Z,63.50
2018-06-08T04:54:02.600Z,57.80
2018-06-08T04:55:02.586Z,62.90
2018-06-08T04:56:02.585Z,64.10
2018-06-08T04:57:02.570Z,58.50
2018-06-08T04:58:02.561Z,62.50
2018-06-08T04:59:02.542Z,55.40
2018-06-08T05:00:02.555Z,55.40
2018-06-08T05:01:02.543Z,60.00
2018-06-08T05:02:02.511Z,58.30
2018-06-08T05:03:02.498Z,57.30
2018-06-08T05:04:02.503Z,59.90
2018-06-08T05:05:02.507Z,55.70
2018-06-08T05:06:02.466Z,57.80
2018-06-08T05:07:02.493Z,58.70
2018-06-08T05:08:02.468Z,58.10
2018-06-08T05:09:02.473Z,58.40
2018-06-08T05:10:02.424Z,54.50
2018-06-08T05:11:02.417Z,56.80
2018-06-08T05:12:02.435Z,62.90
2018-06-08T05:13:02.399Z,63.40
2018-06-08T05:14:02.389Z,60.20
2018-06-08T05:15:02.400Z,58.00
2018-06-08T05:16:02.376Z,53.50
2018-06-08T05:17:02.399Z,57.90
2018-06-08T05:18:02.348Z,57.70
2018-06-08T05:19:02.400Z,55.20
2018-06-08T05:20:02.350Z,50.30
2018-06-08T05:21:02.331Z,56.00
2018-06-08T05:22:02.324Z,56.50
2018-06-08T05:23:02.311Z,57.70
2018-06-08T05:24:02.284Z,55.00
2018-06-08T05:25:02.287Z,56.10
2018-06-08T05:26:02.271Z,53.60
2018-06-08T05:27:02.351Z,60.30
2018-06-08T05:28:02.259Z,58.50
2018-06-08T05:29:02.237Z,54.50
2018-06-08T05:30:02.225Z,59.80
2018-06-08T05:31:02.218Z,58.50
2018-06-08T05:32:02.206Z,54.70
2018-06-08T05:33:02.295Z,56.00
2018-06-08T05:34:02.177Z,58.20
2018-06-08T05:35:02.193Z,55.70
2018-06-08T05:36:02.192Z,53.70
2018-06-08T05:37:02.163Z,57.80
2018-06-08T05:38:02.149Z,51.70
2018-06-08T05:39:02.124Z,57.70
2018-06-08T05:40:02.123Z,54.50
2018-06-08T05:41:02.115Z,55.70
2018-06-08T05:42:02.118Z,59.80
2018-06-08T05:43:02.125Z,54.00
2018-06-08T05:44:02.087Z,57.00
2018-06-08T05:45:02.105Z,49.60
2018-06-08T05:46:02.071Z,56.20
2018-06-08T05:47:02.053Z,50.90
2018-06-08T05:48:02.036Z,51.80
2018-06-08T05:49:02.034Z,49.50
2018-06-08T05:50:02.028Z,50.40
2018-06-08T05:51:02.052Z,51.50
2018-06-08T05:52:02.010Z,54.70
2018-06-08T05:53:01.991Z,50.30
2018-06-08T05:54:01.991Z,51.10
2018-06-08T05:55:02.028Z,54.20
2018-06-08T05:56:01.976Z,50.50
2018-06-08T05:57:01.976Z,52.00
2018-06-08T05:58:01.957Z,54.60
2018-06-08T05:59:01.938Z,51.00
2018-06-08T06:00:01.923Z,51.30
2018-06-08T06:01:01.929Z,50.60
2018-06-08T06:02:01.915Z,48.60
2018-06-08T06:03:01.931Z,50.30
2018-06-08T06:04:01.904Z,49.80
2018-06-08T06:05:01.879Z,49.90
2018-06-08T06:06:01.864Z,49.90
2018-06-08T06:07:01.854Z,50.40
2018-06-08T06:08:01.857Z,47.90
2018-06-08T06:09:01.843Z,54.90
2018-06-08T06:10:01.829Z,46.30
2018-06-08T06:11:01.818Z,48.80
2018-06-08T06:12:01.851Z,50.30
2018-06-08T06:13:01.843Z,49.70
2018-06-08T06:14:01.790Z,49.30
2018-06-08T06:15:01.791Z,54.30
2018-06-08T06:16:01.793Z,50.80
2018-06-08T06:17:01.754Z,49.00
2018-06-08T06:18:01.784Z,54.70
2018-06-08T06:19:01.737Z,47.80
2018-06-08T06:20:01.756Z,52.10
2018-06-08T06:21:01.772Z,53.90
2018-06-08T06:22:01.724Z,53.30
2018-06-08T06:23:01.734Z,49.70
2018-06-08T06:24:01.716Z,49.60
2018-06-08T06:25:01.713Z,51.00
2018-06-08T06:26:01.705Z,57.50
2018-06-08T06:27:01.683Z,48.50
2018-06-08T06:28:01.659Z,51.50
2018-06-08T06:29:01.668Z,52.00
2018-06-08T06:30:01.694Z,49.80
2018-06-08T06:31:01.631Z,49.50
2018-06-08T06:32:01.641Z,54.80
2018-06-08T06:33:01.638Z,53.70
2018-06-08T06:34:01.614Z,53.10
2018-06-08T06:35:01.595Z,59.70
2018-06-08T06:36:01.602Z,57.20
2018-06-08T06:37:01.582Z,48.40
2018-06-08T06:38:01.583Z,54.50
2018-06-08T06:39:01.562Z,53.30
2018-06-08T06:40:01.571Z,55.00
2018-06-08T06:41:01.531Z,54.40
2018-06-08T06:42:01.555Z,54.10
2018-06-08T06:43:01.521Z,53.20
2018-06-08T06:44:01.585Z,54.20
2018-06-08T06:45:01.503Z,54.10
2018-06-08T06:46:01.494Z,57.20
2018-06-08T06:47:01.485Z,54.70
2018-06-08T06:48:01.498Z,51.60
2018-06-08T06:49:01.482Z,54.50
2018-06-08T06:50:01.471Z,50.40
2018-06-08T06:51:01.450Z,50.70
2018-06-08T06:52:01.442Z,48.40
2018-06-08T06:53:01.444Z,52.70
2018-06-08T06:54:01.413Z,51.50
2018-06-08T06:55:01.451Z,47.60
2018-06-08T06:56:01.431Z,55.20
2018-06-08T06:57:01.398Z,54.90
2018-06-08T06:58:01.387Z,52.10
2018-06-08T06:59:01.381Z,49.20
2018-06-08T07:00:01.380Z,51.40
2018-06-08T07:01:01.362Z,50.90
2018-06-08T07:02:01.347Z,56.30
2018-06-08T07:03:01.345Z,52.00
2018-06-08T07:04:01.333Z,53.30
2018-06-08T07:05:01.346Z,59.60
2018-06-08T07:06:01.331Z,59.00
2018-06-08T07:07:01.364Z,59.10
2018-06-08T07:08:01.323Z,60.60
2018-06-08T07:09:01.311Z,54.00
2018-06-08T07:10:01.291Z,60.60
2018-06-08T07:11:01.280Z,55.70
2018-06-08T07:12:01.259Z,51.70
2018-06-08T07:13:01.271Z,55.40
2018-06-08T07:14:01.272Z,61.00
2018-06-08T07:15:01.289Z,57.20
2018-06-08T07:16:01.259Z,55.10
2018-06-08T07:17:01.224Z,55.60
2018-06-08T07:18:01.214Z,60.70
2018-06-08T07:19:01.217Z,57.60
2018-06-08T07:20:01.203Z,58.10
2018-06-08T07:21:01.204Z,62.10
2018-06-08T07:22:01.196Z,51.30
2018-06-08T07:23:01.195Z,52.30
2018-06-08T07:24:01.186Z,51.70
2018-06-08T07:25:01.182Z,52.70
2018-06-08T07:26:01.159Z,54.50
2018-06-08T07:27:01.174Z,57.20
2018-06-08T07:28:01.192Z,53.20
2018-06-08T07:29:01.133Z,55.90
2018-06-08T07:30:01.118Z,55.10
2018-06-08T07:31:01.115Z,56.50
2018-06-08T07:32:01.145Z,53.50
2018-06-08T07:33:01.093Z,53.80
2018-06-08T07:34:01.092Z,57.20
2018-06-08T07:35:01.070Z,52.60
2018-06-08T07:36:01.069Z,58.70
2018-06-08T07:37:01.171Z,53.10
2018-06-08T07:38:01.061Z,54.60
2018-06-08T07:39:01.043Z,55.80
2018-06-08T07:40:01.051Z,50.80
2018-06-08T07:41:01.052Z,49.40
2018-06-08T07:42:01.034Z,50.40
2018-06-08T07:43:01.081Z,54.20
2018-06-08T07:44:01.007Z,55.80
2018-06-08T07:45:01.012Z,50.90
2018-06-08T07:46:00.990Z,51.80
2018-06-08T07:47:00.984Z,52.30
2018-06-08T07:48:00.957Z,52.90
2018-06-08T07:49:00.950Z,55.70
2018-06-08T07:50:00.968Z,54.70
2018-06-08T07:51:00.953Z,51.00
2018-06-08T07:52:00.932Z,56.10
2018-06-08T07:53:00.914Z,57.10
2018-06-08T07:54:01.083Z,52.20
2018-06-08T07:55:00.896Z,52.20
2018-06-08T07:56:00.925Z,50.60
2018-06-08T07:57:00.883Z,51.20
2018-06-08T07:58:00.880Z,50.50
2018-06-08T07:59:00.880Z,55.00
2018-06-08T08:00:00.883Z,51.50
2018-06-08T08:01:00.849Z,52.00
2018-06-08T08:02:00.850Z,52.90
2018-06-08T08:03:00.825Z,54.70
2018-06-08T08:04:00.828Z,54.80
2018-06-08T08:05:00.816Z,54.40
2018-06-08T08:06:00.832Z,55.70
2018-06-08T08:07:00.814Z,53.00
2018-06-08T08:08:00.789Z,58.40
2018-06-08T08:09:00.777Z,54.30
2018-06-08T08:10:00.775Z,60.00
2018-06-08T08:11:00.803Z,54.80
2018-06-08T08:12:00.748Z,52.60
2018-06-08T08:13:00.743Z,55.20
2018-06-08T08:14:00.793Z,59.20
2018-06-08T08:15:00.785Z,59.50
2018-06-08T08:16:01.122Z,57.70
2018-06-08T08:17:00.735Z,63.40
2018-06-08T08:18:00.729Z,57.20
2018-06-08T08:19:00.754Z,58.70
2018-06-08T08:20:00.868Z,58.20
2018-06-08T08:21:00.688Z,57.30
2018-06-08T08:22:00.660Z,59.20
2018-06-08T08:23:00.675Z,56.80
2018-06-08T08:24:00.644Z,58.70
2018-06-08T08:25:00.636Z,57.10
2018-06-08T08:26:00.648Z,52.50
2018-06-08T08:27:00.633Z,63.20
2018-06-08T08:28:00.606Z,54.90
2018-06-08T08:29:00.599Z,54.70
2018-06-08T08:30:00.593Z,55.80
2018-06-08T08:31:00.569Z,55.60
2018-06-08T08:32:00.609Z,57.70
2018-06-08T08:33:00.591Z,54.40
2018-06-08T08:34:00.570Z,54.00
2018-06-08T08:35:00.553Z,59.20
2018-06-08T08:36:00.538Z,59.30
2018-06-08T08:37:00.541Z,58.20
2018-06-08T08:38:00.520Z,59.70
2018-06-08T08:39:00.540Z,55.70
2018-06-08T08:40:00.524Z,58.70
2018-06-08T08:41:00.498Z,58.30
2018-06-08T08:42:00.483Z,58.60
2018-06-08T08:43:00.478Z,55.50
2018-06-08T08:44:00.474Z,59.00
2018-06-08T08:45:00.462Z,61.70
2018-06-08T08:46:00.479Z,67.50
2018-06-08T08:47:00.433Z,62.20
2018-06-08T08:48:00.427Z,62.10
2018-06-08T08:49:00.510Z,65.30
2018-06-08T08:50:00.419Z,63.60
2018-06-08T08:51:00.403Z,73.50
2018-06-08T08:52:00.444Z,69.90
2018-06-08T08:53:00.378Z,69.80
2018-06-08T08:54:00.377Z,65.40
2018-06-08T08:55:00.356Z,73.90
2018-06-08T08:56:00.469Z,70.60
2018-06-08T08:57:00.352Z,78.30
2018-06-08T08:58:00.357Z,76.90
2018-06-08T08:59:00.362Z,75.80
2018-06-08T09:00:00.473Z,76.50
2018-06-08T09:01:00.310Z,78.20
2018-06-08T09:02:00.305Z,78.60
2018-06-08T09:03:00.284Z,83.90
2018-06-08T09:04:00.294Z,82.00
2018-06-08T09:05:00.292Z,84.10
2018-06-08T09:06:00.399Z,81.70
2018-06-08T09:07:00.259Z,78.80
2018-06-08T09:08:00.261Z,78.20
2018-06-08T09:09:00.260Z,86.90
2018-06-08T09:10:00.261Z,85.60
2018-06-08T09:11:00.236Z,81.80
2018-06-08T09:12:00.263Z,84.80
2018-06-08T09:13:00.246Z,85.10
2018-06-08T09:14:00.204Z,77.60
2018-06-08T09:15:00.231Z,78.10
2018-06-08T09:16:00.180Z,79.30
2018-06-08T09:17:00.167Z,73.70
2018-06-08T09:18:00.155Z,78.00
2018-06-08T09:19:00.147Z,74.30
2018-06-08T09:20:00.217Z,76.30
2018-06-08T09:21:00.160Z,76.50
2018-06-08T09:22:00.181Z,76.80
2018-06-08T09:23:00.160Z,73.70
2018-06-08T09:24:00.113Z,77.40
2018-06-08T09:25:00.112Z,73.30
2018-06-08T09:26:00.108Z,70.00
2018-06-08T09:27:00.083Z,69.80
2018-06-08T09:28:00.089Z,66.20
2018-06-08T09:29:00.412Z,62.70
2018-06-08T09:30:00.177Z,64.80
2018-06-08T09:31:00.058Z,69.60
2018-06-08T09:32:00.071Z,61.50
2018-06-08T09:33:00.038Z,58.70
2018-06-08T09:34:00.032Z,65.80
2018-06-08T09:35:00.026Z,63.30
2018-06-08T09:35:59.994Z,65.10
2018-06-08T09:36:59.983Z,63.00
2018-06-08T09:38:00.054Z,68.70
2018-06-08T09:39:00.037Z,64.30
2018-06-08T09:40:00.024Z,69.50
2018-06-08T09:40:59.956Z,68.90
2018-06-08T09:41:59.961Z,69.60
2018-06-08T09:42:59.960Z,69.20
2018-06-08T09:43:59.958Z,68.10
2018-06-08T09:44:59.920Z,68.40
2018-06-08T09:45:59.996Z,70.30
2018-06-08T09:46:59.926Z,71.00
2018-06-08T09:47:59.916Z,76.20
2018-06-08T09:48:59.882Z,73.90
2018-06-08T09:49:59.915Z,66.50
2018-06-08T09:50:59.893Z,65.10
2018-06-08T09:51:59.890Z,63.80
2018-06-08T09:52:59.861Z,64.90
2018-06-08T09:53:59.908Z,62.40
2018-06-08T09:54:59.846Z,61.00
2018-06-08T09:55:59.857Z,59.90
2018-06-08T09:56:59.824Z,61.70
2018-06-08T09:57:59.828Z,68.60
2018-06-08T09:58:59.814Z,63.50
2018-06-08T09:59:59.796Z,60.80
2018-06-08T10:00:59.797Z,63.50
2018-06-08T10:01:59.785Z,65.00
2018-06-08T10:02:59.780Z,65.40
2018-06-08T10:03:59.769Z,66.70
2018-06-08T10:04:59.760Z,62.60
2018-06-08T10:05:59.775Z,60.70
2018-06-08T10:06:59.765Z,59.00
2018-06-08T10:07:59.752Z,59.40
2018-06-08T10:08:59.732Z,60.10
2018-06-08T10:09:59.750Z,59.20
2018-06-08T10:10:59.722Z,58.20
2018-06-08T10:11:59.717Z,59.50
2018-06-08T10:12:59.696Z,61.30
2018-06-08T10:13:59.679Z,67.00
2018-06-08T10:14:59.743Z,59.70
2018-06-08T10:15:59.674Z,64.90
2018-06-08T10:16:59.682Z,61.80
2018-06-08T10:17:59.683Z,63.70
2018-06-08T10:18:59.647Z,63.80
2018-06-08T10:19:59.647Z,64.10
2018-06-08T10:20:59.647Z,63.50
2018-06-08T10:21:59.620Z,66.10
2018-06-08T10:22:59.635Z,63.70
2018-06-08T10:23:59.614Z,63.90
2018-06-08T10:24:59.652Z,64.20
2018-06-08T10:25:59.658Z,65.70
2018-06-08T10:26:59.584Z,74.00
2018-06-08T10:27:59.597Z,70.40
2018-06-08T10:28:59.578Z,64.10
2018-06-08T10:29:59.547Z,64.60
2018-06-08T10:30:59.545Z,66.30
2018-06-08T10:31:59.543Z,67.30
2018-06-08T10:32:59.534Z,69.20
2018-06-08T10:33:59.598Z,72.10
2018-06-08T10:34:59.528Z,79.30
2018-06-08T10:35:59.512Z,64.60
2018-06-08T10:36:59.494Z,65.10
2018-06-08T10:37:59.546Z,66.20
2018-06-08T10:38:59.471Z,67.80
2018-06-08T10:39:59.485Z,66.10
2018-06-08T10:40:59.463Z,66.90
2018-06-08T10:41:59.464Z,59.10
2018-06-08T10:42:59.450Z,66.80
2018-06-08T10:43:59.434Z,69.60
2018-06-08T10:44:59.422Z,67.60
2018-06-08T10:45:59.406Z,66.60
2018-06-08T10:46:59.426Z,67.50
2018-06-08T10:47:59.421Z,69.60
2018-06-08T10:48:59.444Z,63.40
2018-06-08T10:50:00.265Z,69.90
2018-06-08T10:50:59.369Z,72.00
2018-06-08T10:51:59.391Z,68.50
2018-06-08T10:52:59.357Z,71.60
2018-06-08T10:53:59.356Z,76.80
2018-06-08T10:54:59.339Z,79.70
2018-06-08T10:55:59.321Z,77.10
2018-06-08T10:56:59.319Z,82.10
2018-06-08T10:57:59.313Z,84.40
2018-06-08T10:58:59.305Z,88.80
2018-06-08T10:59:59.284Z,91.80
2018-06-08T11:00:59.474Z,87.00
2018-06-08T11:01:59.271Z,99.10
2018-06-08T11:02:59.257Z,102.40
2018-06-08T11:03:59.229Z,101.30
2018-06-08T11:04:59.221Z,100.90
2018-06-08T11:05:59.325Z,104.20
2018-06-08T11:06:59.222Z,107.90
2018-06-08T11:07:59.225Z,112.70
2018-06-08T11:08:59.211Z,111.30
2018-06-08T11:09:59.240Z,112.10
2018-06-08T11:10:59.171Z,122.40
2018-06-08T11:11:59.152Z,121.20
2018-06-08T11:12:59.161Z,121.50
2018-06-08T11:13:59.142Z,128.40
2018-06-08T11:14:59.137Z,130.50
2018-06-08T11:15:59.157Z,131.00
2018-06-08T11:16:59.125Z,135.70
2018-06-08T11:17:59.099Z,141.10
2018-06-08T11:18:59.120Z,134.80
2018-06-08T11:19:59.079Z,132.20
2018-06-08T11:20:59.069Z,133.10
2018-06-08T11:21:59.084Z,138.30
2018-06-08T11:22:59.047Z,136.00
2018-06-08T11:23:59.042Z,141.80
2018-06-08T11:24:59.026Z,135.20
2018-06-08T11:25:59.020Z,142.70
2018-06-08T11:26:59.088Z,136.80
2018-06-08T11:27:59.006Z,139.50
2018-06-08T11:28:58.997Z,149.00
2018-06-08T11:29:58.991Z,144.70
2018-06-08T11:30:58.968Z,155.00
2018-06-08T11:31:58.981Z,144.50
2018-06-08T11:32:58.982Z,145.70
2018-06-08T11:33:58.979Z,135.60
2018-06-08T11:34:58.927Z,136.70
2018-06-08T11:35:58.920Z,142.20
2018-06-08T11:36:58.916Z,150.80
2018-06-08T11:37:58.919Z,142.50
2018-06-08T11:38:58.886Z,163.10
2018-06-08T11:39:58.865Z,151.80
2018-06-08T11:40:58.880Z,160.20
2018-06-08T11:41:58.878Z,159.90
2018-06-08T11:42:58.922Z,186.80
2018-06-08T11:43:58.843Z,181.40
2018-06-08T11:44:58.849Z,192.00
2018-06-08T11:45:58.800Z,186.30
2018-06-08T11:46:58.795Z,207.00
2018-06-08T11:47:58.800Z,204.80
2018-06-08T11:48:59.295Z,212.00
2018-06-08T11:49:58.761Z,236.10
2018-06-08T11:50:58.758Z,221.60
2018-06-08T11:51:58.879Z,220.30
2018-06-08T11:52:58.728Z,231.60
2018-06-08T11:53:58.765Z,243.20
2018-06-08T11:54:58.739Z,231.00
2018-06-08T11:55:58.721Z,230.50
2018-06-08T11:56:58.675Z,229.60
2018-06-08T11:57:58.669Z,236.50
2018-06-08T11:58:58.660Z,237.30
2018-06-08T11:59:58.874Z,252.20
2018-06-08T12:00:58.665Z,256.50
2018-06-08T12:01:58.623Z,268.80
2018-06-08T12:02:58.617Z,255.20
2018-06-08T12:03:58.604Z,269.80
2018-06-08T12:04:58.600Z,273.50
2018-06-08T12:05:58.610Z,291.40
2018-06-08T12:06:58.584Z,273.00
2018-06-08T12:07:58.591Z,257.70
2018-06-08T12:08:58.587Z,285.30
2018-06-08T12:09:58.545Z,293.80
2018-06-08T12:10:58.534Z,278.50
2018-06-08T12:11:58.525Z,290.10
2018-06-08T12:12:58.518Z,315.40
2018-06-08T12:13:58.479Z,337.60
2018-06-08T12:14:58.496Z,304.90
2018-06-08T12:15:58.458Z,315.00
2018-06-08T12:16:58.478Z,327.90
2018-06-08T12:17:58.443Z,330.60
2018-06-08T12:18:58.424Z,345.30
2018-06-08T12:19:58.407Z,345.40
2018-06-08T12:20:58.407Z,308.00
2018-06-08T12:21:58.384Z,298.50
2018-06-08T12:22:58.388Z,286.60
2018-06-08T12:23:58.379Z,288.20
2018-06-08T12:24:58.357Z,279.30
2018-06-08T12:25:58.347Z,273.80
2018-06-08T12:26:58.340Z,251.20
2018-06-08T12:27:58.373Z,259.10
2018-06-08T12:28:58.318Z,250.90
2018-06-08T12:29:58.296Z,254.70
2018-06-08T12:30:58.305Z,249.70
2018-06-08T12:31:58.273Z,241.50
2018-06-08T12:32:58.270Z,231.90
2018-06-08T12:33:58.247Z,245.10
2018-06-08T12:34:58.249Z,230.60
2018-06-08T12:35:58.245Z,218.40
2018-06-08T12:36:58.212Z,228.50
2018-06-08T12:38:01.225Z,228.20
2018-06-08T12:38:58.217Z,225.70
2018-06-08T12:39:58.186Z,229.10
2018-06-08T12:40:58.177Z,211.00
2018-06-08T12:41:58.155Z,208.10
2018-06-08T12:42:58.141Z,197.90
2018-06-08T12:43:58.126Z,180.80
2018-06-08T12:44:58.133Z,179.00
2018-06-08T12:45:58.102Z,176.60
2018-06-08T12:46:58.089Z,179.70
2018-06-08T12:47:58.084Z,190.30
2018-06-08T12:48:58.113Z,195.80
2018-06-08T12:49:58.081Z,182.90
2018-06-08T12:50:58.053Z,187.00
2018-06-08T12:51:58.031Z,183.60
2018-06-08T12:52:58.026Z,175.40
2018-06-08T12:53:58.032Z,169.30
2018-06-08T12:54:58.007Z,173.10
2018-06-08T12:55:58.002Z,170.50
2018-06-08T12:56:58.006Z,181.40
2018-06-08T12:57:57.961Z,169.40
2018-06-08T12:58:57.964Z,159.00
2018-06-08T12:59:57.939Z,151.40
2018-06-08T13:00:57.965Z,148.40
2018-06-08T13:01:57.917Z,141.90